Time,TemperatureF,DewpointF,PressureIn,WindDirection,WindDirectionDegrees,WindSpeedMPH,WindSpeedGustMPH,Humidity,HourlyPrecipIn,Conditions,Clouds,dailyrainin,SoftwareType,DateUTC
2013-09-18 00:07:00,49.0,49.0,29.20,NNW,346,1.0,3.0,98,0.00,,,0.00,weatherlink.com 1.10,2013-09-17 23:07:00,
2013-09-18 00:22:00,49.1,49.0,29.20,NE,36,1.0,3.0,98,0.00,,,0.00,weatherlink.com 1.10,2013-09-17 23:22:00,
2013-09-18 00:37:00,49.0,49.0,29.20,NNW,341,6.0,9.0,98,0.00,,,0.00,weatherlink.com 1.10,2013-09-17 23:37:00,
2013-09-18 00:52:00,47.9,47.0,29.21,NNE,32,4.0,10.0,98,0.00,,,0.00,weatherlink.com 1.10,2013-09-17 23:52:00,
2013-09-18 01:07:00,47.8,47.0,29.21,NE,44,2.0,5.0,98,0.00,,,0.00,weatherlink.com 1.10,2013-09-18 00:07:00,
2013-09-18 01:22:00,46.8,46.0,29.22,North,5,2.0,3.0,98,0.00,,,0.00,weatherlink.com 1.10,2013-09-18 00:22:00,
2013-09-18 01:37:00,-999.0,-99.9,29.23,North,-999,-999.0,-999.0,-999,0.00,,,0.00,weatherlink.com 1.10,2013-09-18 00:37:00,
2013-09-18 01:52:00,-999.0,-99.9,29.23,North,-999,-999.0,-999.0,-999,0.00,,,0.00,weatherlink.com 1.10,2013-09-18 00:52:00,
2013-09-18 02:07:00,-999.0,-99.9,29.24,North,-999,-999.0,-999.0,-999,0.00,,,0.00,weatherlink.com 1.10,2013-09-18 01:07:00,
2013-09-18 02:22:00,-999.0,-99.9,29.25,North,-999,-999.0,-999.0,-999,0.00,,,0.00,weatherlink.com 1.10,2013-09-18 01:22:00,
2013-09-18 02:38:00,-999.0,-99.9,29.25,North,-999,-999.0,-999.0,-999,0.00,,,0.00,weatherlink.com 1.10,2013-09-18 01:38:00,
2013-09-18 03:08:00,-999.0,-99.9,29.26,North,-999,-999.0,-999.0,-999,0.00,,,0.00,weatherlink.com 1.10,2013-09-18 02:08:00,
2013-09-18 03:23:00,-999.0,-99.9,29.27,North,-999,-999.0,-999.0,-999,0.00,,,0.00,weatherlink.com 1.10,2013-09-18 02:23:00,
2013-09-18 03:38:00,-999.0,-99.9,29.27,North,-999,-999.0,-999.0,-999,0.00,,,0.00,weatherlink.com 1.10,2013-09-18 02:38:00,
2013-09-18 03:53:00,-999.0,-99.9,29.28,North,-999,-999.0,-999.0,-999,0.00,,,0.00,weatherlink.com 1.10,2013-09-18 02:53:00,
2013-09-18 04:08:00,-999.0,-99.9,29.28,North,-999,-999.0,-999.0,-999,0.00,,,0.00,weatherlink.com 1.10,2013-09-18 03:08:00,
2013-09-18 04:23:00,-999.0,-99.9,29.28,North,-999,-999.0,-999.0,-999,0.00,,,0.00,weatherlink.com 1.10,2013-09-18 03:23:00,
2013-09-18 04:38:00,-999.0,-99.9,29.29,North,-999,-999.0,-999.0,-999,0.00,,,0.00,weatherlink.com 1.10,2013-09-18 03:38:00,
2013-09-18 04:53:00,-999.0,-99.9,29.29,North,-999,-999.0,-999.0,-999,0.00,,,0.00,weatherlink.com 1.10,2013-09-18 03:53:00,
2013-09-18 05:08:00,-999.0,-99.9,29.30,North,-999,-999.0,-999.0,-999,0.00,,,0.00,weatherlink.com 1.10,2013-09-18 04:08:00,
2013-09-18 05:23:00,-999.0,-99.9,29.30,North,-999,-999.0,-999.0,-999,0.00,,,0.00,weatherlink.com 1.10,2013-09-18 04:23:00,
2013-09-18 05:38:00,-999.0,-99.9,29.31,North,-999,-999.0,-999.0,-999,0.00,,,0.00,weatherlink.com 1.10,2013-09-18 04:38:00,
2013-09-18 05:53:00,-999.0,-99.9,29.31,North,-999,-999.0,-999.0,-999,0.00,,,0.00,weatherlink.com 1.10,2013-09-18 04:53:00,
2013-09-18 06:24:00,-999.0,-99.9,29.32,North,-999,-999.0,-999.0,-999,0.00,,,0.00,weatherlink.com 1.10,2013-09-18 05:24:00,
2013-09-18 06:39:00,-999.0,-99.9,29.32,North,-999,-999.0,-999.0,-999,0.00,,,0.00,weatherlink.com 1.10,2013-09-18 05:39:00,
2013-09-18 06:54:00,-999.0,-99.9,29.33,North,-999,-999.0,-999.0,-999,0.00,,,0.00,weatherlink.com 1.10,2013-09-18 05:54:00,
2013-09-18 07:09:00,-999.0,-99.9,29.34,North,-999,-999.0,-999.0,-999,0.00,,,0.00,weatherlink.com 1.10,2013-09-18 06:09:00,
2013-09-18 07:24:00,-999.0,-99.9,29.35,North,-999,-999.0,-999.0,-999,0.00,,,0.00,weatherlink.com 1.10,2013-09-18 06:24:00,
2013-09-18 07:39:00,-999.0,-99.9,29.36,North,-999,-999.0,-999.0,-999,0.00,,,0.00,weatherlink.com 1.10,2013-09-18 06:39:00,
2013-09-18 07:54:00,-999.0,-99.9,29.36,North,-999,-999.0,-999.0,-999,0.00,,,0.00,weatherlink.com 1.10,2013-09-18 06:54:00,
2013-09-18 08:09:00,47.6,46.0,29.37,West,275,9.0,17.0,94,0.00,,,0.00,weatherlink.com 1.10,2013-09-18 07:09:00,
2013-09-18 08:24:00,47.7,46.0,29.38,NW,311,7.0,13.0,94,0.00,,,0.00,weatherlink.com 1.10,2013-09-18 07:24:00,
2013-09-18 08:39:00,47.9,46.0,29.38,NNW,335,3.0,14.0,94,0.00,,,0.00,weatherlink.com 1.10,2013-09-18 07:39:00,
2013-09-18 08:54:00,48.1,47.0,29.39,NW,309,5.0,10.0,94,0.00,,,0.00,weatherlink.com 1.10,2013-09-18 07:54:00,
2013-09-18 09:09:00,48.4,47.0,29.39,NNW,335,6.0,11.0,93,0.00,,,0.00,weatherlink.com 1.10,2013-09-18 08:09:00,
2013-09-18 09:24:00,48.8,47.0,29.39,WNW,302,4.0,13.0,92,0.00,,,0.00,weatherlink.com 1.10,2013-09-18 08:24:00,
2013-09-18 09:54:00,50.1,47.0,29.40,WNW,296,10.0,17.0,89,0.00,,,0.00,weatherlink.com 1.10,2013-09-18 08:54:00,
2013-09-18 10:09:00,50.5,47.0,29.40,NW,323,11.0,18.0,88,0.00,,,0.00,weatherlink.com 1.10,2013-09-18 09:09:00,
2013-09-18 10:24:00,50.7,47.0,29.40,NNW,333,11.0,18.0,87,0.00,,,0.00,weatherlink.com 1.10,2013-09-18 09:24:00,
2013-09-18 10:40:00,51.5,48.0,29.40,NW,323,19.0,19.0,86,0.00,,,0.00,weatherlink.com 1.10,2013-09-18 09:40:00,
2013-09-18 10:55:00,51.9,47.0,29.41,NNE,30,18.0,20.0,84,0.00,,,0.00,weatherlink.com 1.10,2013-09-18 09:55:00,
2013-09-18 11:10:00,51.9,47.0,29.41,NNW,345,7.0,21.0,83,0.00,,,0.00,weatherlink.com 1.10,2013-09-18 10:10:00,
2013-09-18 11:25:00,52.4,47.0,29.42,NNW,341,11.0,22.0,82,0.00,,,0.00,weatherlink.com 1.10,2013-09-18 10:25:00,
2013-09-18 11:40:00,52.8,47.0,29.42,North,360,10.0,20.0,81,0.00,,,0.00,weatherlink.com 1.10,2013-09-18 10:40:00,
2013-09-18 11:55:00,53.6,47.0,29.43,NW,304,7.0,21.0,79,0.00,,,0.00,weatherlink.com 1.10,2013-09-18 10:55:00,
2013-09-18 12:10:00,53.0,46.0,29.43,West,281,16.0,23.0,77,0.00,,,0.00,weatherlink.com 1.10,2013-09-18 11:10:00,
2013-09-18 12:25:00,52.8,46.0,29.43,NNW,345,9.0,19.0,79,0.00,,,0.00,weatherlink.com 1.10,2013-09-18 11:25:00,
2013-09-18 12:41:00,52.9,47.0,29.44,NNE,23,2.0,25.0,80,0.00,,,0.00,weatherlink.com 1.10,2013-09-18 11:41:00,
2013-09-18 12:55:00,53.7,47.0,29.44,North,360,10.0,22.0,78,0.00,,,0.00,weatherlink.com 1.10,2013-09-18 11:55:00,
2013-09-18 13:10:00,53.8,46.0,29.45,NNW,330,9.0,17.0,76,0.00,,,0.00,weatherlink.com 1.10,2013-09-18 12:10:00,
2013-09-18 13:25:00,53.4,46.0,29.45,North,353,7.0,18.0,77,0.00,,,0.00,weatherlink.com 1.10,2013-09-18 12:25:00,
2013-09-18 13:40:00,54.3,47.0,29.46,North,4,18.0,18.0,76,0.00,,,0.00,weatherlink.com 1.10,2013-09-18 12:40:00,
2013-09-18 13:55:00,54.4,46.0,29.47,NNE,19,8.0,16.0,74,0.00,,,0.00,weatherlink.com 1.10,2013-09-18 12:55:00,
2013-09-18 14:10:00,54.8,47.0,29.46,NNW,341,11.0,21.0,74,0.00,,,0.00,weatherlink.com 1.10,2013-09-18 13:10:00,
2013-09-18 14:25:00,54.9,46.0,29.46,NNW,330,11.0,22.0,73,0.00,,,0.00,weatherlink.com 1.10,2013-09-18 13:25:00,
2013-09-18 14:40:00,54.6,47.0,29.47,North,4,12.0,24.0,75,0.00,,,0.00,weatherlink.com 1.10,2013-09-18 13:40:00,
2013-09-18 14:55:00,53.1,47.0,29.48,NW,322,13.0,19.0,79,0.00,,,0.00,weatherlink.com 1.10,2013-09-18 13:55:00,
2013-09-18 15:10:00,54.1,48.0,29.48,NNW,330,7.0,22.0,79,0.00,,,0.00,weatherlink.com 1.10,2013-09-18 14:10:00,
2013-09-18 15:25:00,54.0,46.0,29.48,NNE,22,6.0,19.0,75,0.00,,,0.00,weatherlink.com 1.10,2013-09-18 14:25:00,
2013-09-18 15:40:00,54.2,46.0,29.48,NW,323,11.0,19.0,73,0.00,,,0.00,weatherlink.com 1.10,2013-09-18 14:40:00,
2013-09-18 15:55:00,54.6,46.0,29.48,North,354,9.0,20.0,74,0.00,,,0.00,weatherlink.com 1.10,2013-09-18 14:55:00,
2013-09-18 16:10:00,54.5,46.0,29.49,North,351,9.0,20.0,74,0.00,,,0.00,weatherlink.com 1.10,2013-09-18 15:10:00,
2013-09-18 16:25:00,54.7,46.0,29.49,NNW,338,7.0,25.0,72,0.00,,,0.00,weatherlink.com 1.10,2013-09-18 15:25:00,
2013-09-18 16:40:00,54.5,45.0,29.50,NNW,333,16.0,21.0,70,0.00,,,0.00,weatherlink.com 1.10,2013-09-18 15:40:00,
2013-09-18 16:55:00,54.0,46.0,29.50,NNW,342,10.0,18.0,74,0.00,,,0.00,weatherlink.com 1.10,2013-09-18 15:55:00,
2013-09-18 17:10:00,54.8,45.0,29.51,North,356,8.0,17.0,70,0.00,,,0.00,weatherlink.com 1.10,2013-09-18 16:10:00,
2013-09-18 17:41:00,54.5,44.0,29.52,NNW,333,9.0,19.0,69,0.00,,,0.00,weatherlink.com 1.10,2013-09-18 16:41:00,
2013-09-18 17:56:00,54.4,44.0,29.52,NNW,327,9.0,19.0,69,0.00,,,0.00,weatherlink.com 1.10,2013-09-18 16:56:00,
2013-09-18 18:11:00,54.6,45.0,29.53,North,1,12.0,20.0,69,0.00,,,0.00,weatherlink.com 1.10,2013-09-18 17:11:00,
2013-09-18 18:26:00,54.5,43.0,29.53,NNE,19,14.0,21.0,66,0.00,,,0.00,weatherlink.com 1.10,2013-09-18 17:26:00,
2013-09-18 18:41:00,53.9,43.0,29.54,NNW,346,2.0,14.0,68,0.00,,,0.00,weatherlink.com 1.10,2013-09-18 17:41:00,
2013-09-18 18:56:00,53.5,44.0,29.54,North,351,9.0,16.0,70,0.00,,,0.00,weatherlink.com 1.10,2013-09-18 17:56:00,
2013-09-18 19:11:00,53.1,44.0,29.54,NNW,330,7.0,11.0,72,0.00,,,0.00,weatherlink.com 1.10,2013-09-18 18:11:00,
2013-09-18 19:26:00,52.7,44.0,29.54,NNW,330,5.0,14.0,73,0.00,,,0.00,weatherlink.com 1.10,2013-09-18 18:26:00,
2013-09-18 19:41:00,52.3,45.0,29.55,NNE,16,5.0,9.0,75,0.00,,,0.00,weatherlink.com 1.10,2013-09-18 18:41:00,
2013-09-18 19:56:00,52.0,44.0,29.55,NW,306,3.0,12.0,75,0.00,,,0.00,weatherlink.com 1.10,2013-09-18 18:56:00,
2013-09-18 20:11:00,51.1,44.0,29.55,NNW,330,2.0,8.0,77,0.00,,,0.00,weatherlink.com 1.10,2013-09-18 19:11:00,
2013-09-18 20:26:00,50.2,44.0,29.55,NNW,333,5.0,10.0,78,0.00,,,0.00,weatherlink.com 1.10,2013-09-18 19:26:00,
2013-09-18 20:41:00,49.8,44.0,29.56,NW,316,5.0,9.0,79,0.00,,,0.00,weatherlink.com 1.10,2013-09-18 19:41:00,
2013-09-18 21:10:00,49.7,43.0,29.56,NNW,335,7.0,10.0,78,0.00,,,0.00,weatherlink.com 1.10,2013-09-18 20:10:00,
2013-09-18 21:25:00,50.1,43.0,29.57,WNW,297,4.0,7.0,77,0.00,,,0.00,weatherlink.com 1.10,2013-09-18 20:25:00,
2013-09-18 21:40:00,50.0,43.0,29.58,NE,40,2.0,7.0,78,0.00,,,0.00,weatherlink.com 1.10,2013-09-18 20:40:00,
2013-09-18 21:55:00,50.1,44.0,29.58,West,272,3.0,9.0,78,0.00,,,0.00,weatherlink.com 1.10,2013-09-18 20:55:00,
2013-09-18 22:25:00,50.1,44.0,29.57,North,349,2.0,5.0,79,0.00,,,0.00,weatherlink.com 1.10,2013-09-18 21:25:00,
2013-09-18 22:40:00,50.0,44.0,29.57,NW,314,2.0,4.0,79,0.00,,,0.00,weatherlink.com 1.10,2013-09-18 21:40:00,
2013-09-18 22:55:00,50.0,44.0,29.57,NW,314,6.0,6.0,80,0.00,,,0.00,weatherlink.com 1.10,2013-09-18 21:55:00,
2013-09-18 23:10:00,50.2,44.0,29.57,NW,316,4.0,7.0,80,0.00,,,0.00,weatherlink.com 1.10,2013-09-18 22:10:00,
2013-09-18 23:25:00,50.1,44.0,29.57,West,262,5.0,8.0,80,0.00,,,0.00,weatherlink.com 1.10,2013-09-18 22:25:00,
2013-09-18 23:40:00,49.7,44.0,29.57,NNE,16,1.0,5.0,81,0.00,,,0.00,weatherlink.com 1.10,2013-09-18 22:40:00,
2013-09-18 23:55:00,49.6,44.0,29.57,NNE,25,0.0,7.0,82,0.00,,,0.00,weatherlink.com 1.10,2013-09-18 22:55:00,